Coraopolis, PA

5:55 PM EST on December 08, 2016 (GMT -0500)
Anderson Avenue Moon Twp | | Change Station

Elev 1063 ft 40.50 °N, 80.16 °W | Updated 4 minutes ago

Overcast
Overcast
25.5 °F
Feels Like 21 °F
N
3.5
Wind Variable Wind from West
Gusts 7.8 mph

Today
High -- | Low -- °F
--% Chance of Precip.
Yesterday
High -- | Low -- °F
Precip. -- in
Pressure 30.23 in
Visibility 8.0 miles
Clouds Few 3100 ft
Overcast 4500 ft
Windchill 21 °F
Dew Point 18 °F
Humidity 73%
Rainfall 0.00 in
Snow Depth Not available.
7:31 AM 4:53 PM
Waxing Gibbous, 67% visible
METAR KPIT 082251Z 27012KT 8SM -SN FEW031 OVC045 M03/M08 A3016 RMK AO2 SLP236 P0000 T10281078
Pressure 30.23 in
Visibility 8.0 miles
Clouds Few 3100 ft
Overcast 4500 ft
Windchill 21 °F
Dew Point 18 °F
Humidity 73%
Rainfall 0.00 in
Snow Depth Not available.
7:31 AM 4:53 PM
Waxing Gibbous, 67% visible
METAR KPIT 082251Z 27012KT 8SM -SN FEW031 OVC045 M03/M08 A3016 RMK AO2 SLP236 P0000 T10281078

10-Day Weather Forecast

Almanac

Astronomy

Dec. 08, 2016 Rise Set
Actual Time
Civil Twilight
Nautical Twilight
Astronomical Twilight
Moon
Length of Visible Light
Length of Day
Tomorrow will be .
, % of the Moon is Illuminated

Today's Extremes

State Highs State Lows

Community

WunderPhotos

Upload Photos

1,956,277 photos uploaded!

WunderBlog® & News

Nearby

Air Quality

  Air Quality AQ Index Pollutant
Not available.

Snow Depth

Station Depth Elevation

Earthquake Activity

City Distance Mag. Time & Date
Minimum magnitude displayed is 2.5.

Coastal Water Temperatures

Place Temperature

Stations

Nearby Weather Stations

Station Location Temp. Windchill Dew Point Humidity Wind Precip. Elev Updated Type
                   

Watches & Warnings

There are currently no watches in effect.